NWS Home NWS Lubbock West Texas Mesonet North Sector Latest Conditions as of 0550 PM, Sun Mar 26, 2017

Latest   N   C   S   Daily Sum   3hrΔ   24hrΔ   Soil Data 
Site Map   24hr Precip   72hr Precip   Google Plot


Station Time of Last Temp Dew Pt. RH Wind Direction Wind Speed Wind Gust Max Wind Max Temp Min Temp Max RH Min RH Altimeter 1HR Rain Today's Rain Solar Rad Red Flag
Aiken 3WSW  05:45 PM 76 28 17% W2326 43 mph 263° @ 0124 PM 78 42 67 12 29.75" 0 0.00 472 173
Amarillo 15NNW   05:45 PM 66 38 36% N2124 36 mph 251° @ 1127 AM 75 44 58 20 29.78" 0 0.00 438  
Amarillo 7SSE  05:45 PM 70 35 27% NW1822 42 mph 245° @ 0242 PM 75 42 64 19 29.76" 0 0.00 478  
Amarillo 9NNE  05:45 PM 67 36 33% N2225 33 mph 260° @ 1247 PM 74 44 61 20 29.77" 0 0.00 457  
Amherst 1NE  05:45 PM 74 23 15% W1521 45 mph 272° @ 0305 PM 75 42 55 13 29.76" 0 0.00 510 280
Bootleg 11WNW  05:45 PM 67 32 27% NW2327 42 mph 263° @ 1023 AM 71 40 57 20 29.83" 0 0.00 424  
Boys Ranch 1WSW  05:45 PM 66 37 34% N1825 32 mph 247° @ 1120 AM 73 41 72 21 29.79" 0 0.00 464  
Canadian 6E  05:45 PM 62 44 52% NW2430 38 mph 314° @ 0530 PM 80 40 98 17 29.69" 0 0.00 123  
Caprock Canyons State Park  05:45 PM 78 25 14% W2125 39 mph 216° @ 0155 PM 79 45 75 11 29.71" 0 0.00 393 133
Childress 2NNE  05:45 PM 83 21 10% W2228 43 mph 221° @ 0255 PM 85 44 82 9 29.66" 0 0.00 448 65
Clarendon 2WSW  05:45 PM 78 27 16% W1520 35 mph 253° @ 0210 PM 78 42 77 12 29.69" 0 0.00 438 50
Claude 12SW  05:45 PM 72 33 24% NW1519 36 mph 254° @ 0154 PM 76 45 59 17 29.74" 0 0.00 471  
Dimmitt 2NE  05:45 PM 72 32 23% NW2127 40 mph 234° @ 0235 PM 74 44 60 17 29.77" 0 0.00 515  
Dozier 3W  05:45 PM 80 30 16% W1518 35 mph 236° @ 0339 PM 82 44 83 14 29.67" 0 0.00 515 28
Floydada 2NNE  05:45 PM 77 17 11% W2230 43 mph 244° @ 0220 PM 78 44 65 9 29.74" 0 0.00 473 275
Friona 2NE  05:45 PM 70 29 22% NW2332 39 mph 262° @ 1150 AM 74 40 63 16 29.79" 0 0.00 446  
Goodlett 3W  05:45 PM 84 21 10% SW2127 39 mph 213° @ 0350 PM 84 44 84 10 29.64" 0 0.00 449 55
Goodnight  05:45 PM 73 36 25% N1621 37 mph 266° @ 0218 PM 78 38 83 16 29.73" 0 0.00 470  
Hart 3N  05:45 PM 74 26 17% W1524 43 mph 244° @ 0150 PM 75 41 71 16 29.76" 0 0.00 444  
Hereford 2NW  05:45 PM 69 32 26% NW2334 37 mph 256° @ 1110 AM 71 45 52 22 29.78" 0 0.00 472  
McLean 1E  05:45 PM 75 26 16% W1419 36 mph 245° @ 0445 PM 78 43 80 13 29.68" 0 0.00 219 10
Memphis 1NE  05:45 PM 80 25 13% W1522 33 mph 245° @ 0355 PM 81 43 84 11 29.66" 0 0.00 109  
Muleshoe 2SSW  05:45 PM 74 22 14% W1522 40 mph 267° @ 0140 PM 76 46 49 14 29.77" 0 0.00 410 115
Northfield 1S  05:45 PM 82 24 12% W2132 42 mph 239° @ 0210 PM 84 44 82 10 29.67" 0 0.00 414 155
Odell 4ENE  05:45 PM 79 38 23% S1620 28 mph 161° @ 1144 AM 80 45 88 19 29.67" 0 0.00 237  
Olton 6S  05:45 PM 75 23 15% W2127 44 mph 265° @ 0335 PM 76 42 66 12 29.75" 0 0.00 459 265
Palo Duro Canyon SP Floor  05:45 PM 76 34 21% NW1215 31 mph 309° @ 0515 PM 79 48 54 15 29.72" 0 0.00 454  
Palo Duro Canyon State Park Rim  05:45 PM 73 34 23% NW1822 36 mph 256° @ 1245 PM 77 48 52 17 29.76" 0 0.00 483  
Pampa 2E  05:45 PM 66 40 40% NW2533 33 mph 332° @ 0545 PM 74 40 91 20 29.74" 0 0.00 324  
Panhandle 1SSW  05:45 PM 68 36 31% N2124 37 mph 262° @ 0159 PM 74 41 74 20 29.77" 0 0.00 467  
Plainview 1S  05:45 PM 74 28 18% W1625 38 mph 241° @ 0250 PM 75 46 65 13 29.74" 0 0.00 447 50
Silverton 7ESE  05:45 PM 77 25 15% W1928 42 mph 248° @ 0240 PM 78 44 65 10 29.72" 0 0.00 402 280
Tulia 2ENE  05:45 PM 73 30 21% NW1621 41 mph 248° @ 0120 PM 75 43 71 18 29.74" 0 0.00 167  
Turkey 2WSW  05:45 PM 80 26 14% W2128 39 mph 237° @ 0300 PM 81 44 81 11 29.68" 0 0.00 427 215
Umbarger 3NNE  05:45 PM 70 32 25% NW2730 36 mph 306° @ 0521 PM 74 46 56 19 29.77" 0 0.00 456  
Vigo Park  05:45 PM 72 32 23% W1822 41 mph 243° @ 0129 PM 77 42 69 14 29.74" 0 0.00 361 11

West Texas Mesonet Home   Site Map/Menu  NWS Lubbock Soil Data  Daily Summary Page  24hr Precip  72hr Precip  Google Plot